Battle Point — NMBY — position and weather

sailwx.info

Track history (hours):
 
Tides and Currents Weather Stations Pressure Air Temp Water Temp Dewpoint Dewpoint Depression Visibility Wind Speed Wind Dir Waves Ship Positions

Battle Point

Last reported at 2017-Feb-15 03:32 UTC. Time now 2017-Feb-26 06:13 UTC.
Position N 47°46' W 122°44'.
Warning: this ship's position is 11 days out of date.

Length 57 m; draft 3.2 m.

MMSI: 369970254.

Date/timePositionNaut miles runAvg speedWind from/ knotsBaromVisibWave heightAir tempDewpointWater temp
2017-Feb-15 03:32N 47°46' W 122°44'8 8.1
2017-Feb-15 02:33N 47°52' W 122°36'1 1.5
2017-Feb-15 01:33N 47°54' W 122°36'1310.8
2017-Feb-15 00:19N 48°07' W 122°41'912.0
2017-Feb-14 23:32N 48°14' W 122°49'1110.8
2017-Feb-14 22:33N 48°24' W 122°45'1212.0
2017-Feb-14 21:33N 48°36' W 122°45'1110.6
2017-Feb-14 20:33N 48°46' W 122°51'1211.8
2017-Feb-14 19:33N 48°53' W 123°06'1211.7
2017-Feb-14 18:33N 49°00' W 123°20'1111.2
2017-Feb-14 17:33N 49°07' W 123°33'1010.4
2017-Feb-14 16:33N 49°13' W 123°46'1010.3
2017-Feb-14 15:34N 49°16' W 124°01'5 4.9
2017-Feb-14 14:33N 49°16' W 124°09'  
Track history (hours):
 
Tides and Currents Weather Stations Pressure Air Temp Water Temp Dewpoint Dewpoint Depression Visibility Wind Speed Wind Dir Waves Ship Positions

Battle Point

Last reported at 2017-Feb-15 03:32 UTC. Time now 2017-Feb-26 06:13 UTC.
Position N 47°46' W 122°44'.
Warning: this ship's position is 11 days out of date.

Length 57 m; draft 3.2 m.

MMSI: 369970254.

Date/timePositionNaut miles runAvg speedWind from/ knotsBaromVisibWave heightAir tempDewpointWater temp
2017-Feb-15 03:32N 47°46' W 122°44'8 8.1
2017-Feb-15 02:33N 47°52' W 122°36'1 1.5
2017-Feb-15 01:33N 47°54' W 122°36'1310.8
2017-Feb-15 00:19N 48°07' W 122°41'912.0
2017-Feb-14 23:32N 48°14' W 122°49'1110.8
2017-Feb-14 22:33N 48°24' W 122°45'1212.0
2017-Feb-14 21:33N 48°36' W 122°45'1110.6
2017-Feb-14 20:33N 48°46' W 122°51'1211.8
2017-Feb-14 19:33N 48°53' W 123°06'1211.7
2017-Feb-14 18:33N 49°00' W 123°20'1111.2
2017-Feb-14 17:33N 49°07' W 123°33'1010.4
2017-Feb-14 16:33N 49°13' W 123°46'1010.3
2017-Feb-14 15:34N 49°16' W 124°01'5 4.9
2017-Feb-14 14:33N 49°16' W 124°09'  

Dump ship's entire track history